WFLO2: Webbers Falls Lock & Dam & Reservoir (L&D 16)

Data processed at Sun Oct 25 2020 22:29


All information presented herein is the property of the government of the United States of America and may be revised or deleted at any time without prior notice.
Dissemination of this information without the expressed written consent of the Public Affairs Office, Tulsa District U.S. Army Corps of Engineers is strictly prohibited.
These data are gathered electronically and, as presented, have not undergone any form of quality control. These data are not guaranteed to be valid or correct.
Go to home page.
Go to station list.
Go to home page.

Upstream stations:

Downstream station:
Previous Day
Next Day
Current Day
    
SHEF ID:       WFLO2     Webbers Falls LD16
STATION TYPE:  NAVIGATION LOCK
Navigation Pool:  Bottom =   487.00, Top =   490.00

               PRECIP ELEVATION   STORAGE   TW-ELEV    INFLOW   RELEASE  AIR-TEMP  WIND-DIRWIND-SPEED REL-HUMID SOLAR-RAD   VOLTAGE  BAT-LOAD
                   in        ft     ac-ft        ft       cfs       cfs         F       deg       mph         %      W/m2      volt      volt
              Ccp-Rev   Ccp-Rev   Ccp-Rev   Ccp-Rev  Rev-Regi  Rev-Regi   Ccp-Rev   Ccp-Rev   Ccp-Rev   Ccp-Rev   Ccp-Rev   Ccp-Rev   Ccp-Rev
(US/Central)
10/25 00:00      0.00    489.87    168695    459.90       975         0     46.74    328.50      3.80     78.38      0.00     13.22     12.97
10/25 01:00      0.00    489.82    168155    460.02      1839         0     46.65    331.70      3.30     80.57      0.00     13.22     12.97
10/25 02:00      0.00    489.77    167614    460.16      2014      9150     46.35     67.10      1.60     84.00      0.00     13.22     12.97
10/25 03:00      0.00    489.76    167506    460.17      2321      9150     46.69    114.90      1.30     86.38      0.00     13.22     12.97
10/25 04:00      0.00    489.70    166858    460.06      2321      9150     47.14    137.30      2.60     87.00      0.00     13.22     12.97
10/25 05:00      0.00    489.67    166534    460.07      1927      9150     46.92    121.80      2.00     89.42      0.00     13.22     12.97
10/25 06:00      0.00    489.59    165669    460.12      2658      9150     46.17     12.10      0.20     92.05      0.00     13.22     12.97
10/25 07:00      0.00    489.50    164697    460.12      2483      9450     45.19     33.40      0.40     95.71      0.00     13.22     12.97
10/25 08:00      0.00    489.56    165345    459.87      1782      5450     45.05     37.70      0.40     97.61      0.00     13.22     12.97
10/25 09:00      0.00    489.55    165237    459.93      1782         0     46.00    356.80      1.30     96.37      9.70     13.22     12.97
10/25 10:00      0.00    489.56    165345    460.11      1782         0     48.04    100.70      1.30     90.83     94.60     13.22     12.73
10/25 11:00      0.00    489.53    165021    460.02         0         0     49.80    100.50      1.60     83.69    154.60     13.22     12.97
10/25 12:00      0.00    489.48    164481    460.00      1016         0     49.98      1.50      2.40     82.54     76.50     13.22     12.97
10/25 13:00      0.00    489.53    165021    459.80      1649         0     50.63     23.20      1.80     78.23    121.50     13.22     12.97
10/25 14:00      0.00    489.58    165561    459.83      1874         0     52.27    315.60      1.20     70.05    202.90     13.22     12.97
10/25 15:00      0.00    489.61    165885    459.93      1874         0     52.25    327.10      3.00     69.09    107.00     13.22     12.97
10/25 16:00      0.00    489.62    165993    459.91      1874         0     52.14      0.40      2.50     68.63     55.80     13.22     12.97
10/25 17:00      0.00    489.63    166102    459.88      1525         0     52.36    355.50      3.80     67.43     39.40     13.22     12.97
10/25 18:00      0.00    489.58    165561    459.97      3481      4300     51.35    353.10      4.80     71.89     13.10     13.22     12.97
10/25 19:00      0.00    489.54    165129    460.08      3762      9100     49.84      1.10      4.30     75.90      0.00     13.22     12.97
10/25 20:00      0.00    489.57    165453    459.97      6351      9450     49.64    352.80      4.20     74.84      0.00     13.22     12.97
10/25 21:00      0.00    489.59    165669    459.67      4775         0     49.30    352.70      5.20     75.18      0.00     13.22     12.97
10/25 22:00      ----      ----      ----      ----      ----      ----      ----      ----      ----      ----      ----      ----      ----
10/25 23:00      ----      ----      ----      ----      ----      ----      ----      ----      ----      ----      ----      ----      ----